createdAt,value
2023-04-16T00:00:24.603Z,25.83
2023-04-16T00:01:24.632Z,25.84
2023-04-16T00:02:24.770Z,25.87
2023-04-16T00:03:24.899Z,25.87
2023-04-16T00:04:24.748Z,25.83
2023-04-16T00:05:24.726Z,25.84
2023-04-16T00:06:24.772Z,25.84
2023-04-16T00:07:24.765Z,25.85
2023-04-16T00:08:24.826Z,25.84
2023-04-16T00:09:24.825Z,25.83
2023-04-16T00:10:24.827Z,25.83
2023-04-16T00:11:24.850Z,25.85
2023-04-16T00:12:24.891Z,25.84
2023-04-16T00:13:24.912Z,25.84
2023-04-16T00:14:24.934Z,25.85
2023-04-16T00:15:24.941Z,25.85
2023-04-16T00:16:25.032Z,25.84
2023-04-16T00:17:25.028Z,25.83
2023-04-16T00:18:25.015Z,25.84
2023-04-16T00:19:25.064Z,25.85
2023-04-16T00:20:25.065Z,25.87
2023-04-16T00:21:25.097Z,25.85
2023-04-16T00:22:25.140Z,25.84
2023-04-16T00:23:25.171Z,25.84
2023-04-16T00:24:25.174Z,25.85
2023-04-16T00:25:25.215Z,25.84
2023-04-16T00:26:25.230Z,25.83
2023-04-16T00:27:25.275Z,25.84
2023-04-16T00:28:25.292Z,25.84
2023-04-16T00:29:25.313Z,25.84
2023-04-16T00:30:25.327Z,25.84
2023-04-16T00:31:25.407Z,25.85
2023-04-16T00:32:25.371Z,25.81
2023-04-16T00:33:25.390Z,25.84
2023-04-16T00:34:25.412Z,25.85
2023-04-16T00:35:25.441Z,25.81
2023-04-16T00:36:25.465Z,25.84
2023-04-16T00:37:25.501Z,25.83
2023-04-16T00:38:25.513Z,25.85
2023-04-16T00:39:25.555Z,25.85
2023-04-16T00:40:25.588Z,25.85
2023-04-16T00:41:25.645Z,25.83
2023-04-16T00:42:25.621Z,25.81
2023-04-16T00:43:25.639Z,25.83
2023-04-16T00:44:25.661Z,25.83
2023-04-16T00:45:25.704Z,25.84
2023-04-16T00:46:25.821Z,25.81
2023-04-16T00:47:25.750Z,25.84
2023-04-16T00:48:25.752Z,25.83
2023-04-16T00:49:25.791Z,25.83
2023-04-16T00:50:25.814Z,25.81
2023-04-16T00:51:25.922Z,25.83
2023-04-16T00:52:25.852Z,25.83
2023-04-16T00:53:25.884Z,25.81
2023-04-16T00:54:25.910Z,25.85
2023-04-16T00:55:25.935Z,25.83
2023-04-16T00:56:25.973Z,25.83
2023-04-16T00:57:25.977Z,25.83
2023-04-16T00:58:26.007Z,25.83
2023-04-16T00:59:26.035Z,25.81
2023-04-16T01:00:26.081Z,25.81
2023-04-16T01:01:26.137Z,25.81
2023-04-16T01:02:26.214Z,25.83
2023-04-16T01:03:26.212Z,25.84
2023-04-16T01:04:26.241Z,25.84
2023-04-16T01:05:26.201Z,25.81
2023-04-16T01:06:26.226Z,25.83
2023-04-16T01:07:26.242Z,25.81
2023-04-16T01:08:26.271Z,25.83
2023-04-16T01:09:26.315Z,25.83
2023-04-16T01:10:26.345Z,25.81
2023-04-16T01:11:26.365Z,25.80
2023-04-16T01:12:26.400Z,25.83
2023-04-16T01:13:26.430Z,25.83
2023-04-16T01:14:26.428Z,25.83
2023-04-16T01:15:26.471Z,25.83
2023-04-16T01:16:26.551Z,25.81
2023-04-16T01:17:26.530Z,25.81
2023-04-16T01:18:26.546Z,25.81
2023-04-16T01:19:26.596Z,25.84
2023-04-16T01:20:26.637Z,25.81
2023-04-16T01:21:26.662Z,25.81
2023-04-16T01:22:26.694Z,25.81
2023-04-16T01:23:26.721Z,25.83
2023-04-16T01:24:26.772Z,25.83
2023-04-16T01:25:26.781Z,25.80
2023-04-16T01:26:26.807Z,25.83
2023-04-16T01:27:26.824Z,25.83
2023-04-16T01:28:26.841Z,25.83
2023-04-16T01:29:26.880Z,25.81
2023-04-16T01:30:26.902Z,25.81
2023-04-16T01:31:26.968Z,25.81
2023-04-16T01:32:26.978Z,25.84
2023-04-16T01:33:26.988Z,25.83
2023-04-16T01:34:26.996Z,25.81
2023-04-16T01:35:27.041Z,25.80
2023-04-16T01:36:27.048Z,25.79
2023-04-16T01:37:27.081Z,25.83
2023-04-16T01:38:27.125Z,25.81
2023-04-16T01:39:27.139Z,25.81
2023-04-16T01:40:27.148Z,25.81
2023-04-16T01:41:27.205Z,25.80
2023-04-16T01:42:27.212Z,25.81
2023-04-16T01:43:27.229Z,25.80
2023-04-16T01:44:27.252Z,25.83
2023-04-16T01:45:27.271Z,25.83
2023-04-16T01:46:27.341Z,25.81
2023-04-16T01:47:27.352Z,25.81
2023-04-16T01:48:27.342Z,25.83
2023-04-16T01:49:27.390Z,25.81
2023-04-16T01:50:27.422Z,25.81
2023-04-16T01:51:27.427Z,25.80
2023-04-16T01:52:27.454Z,25.80
2023-04-16T01:53:27.479Z,25.83
2023-04-16T01:54:27.499Z,25.80
2023-04-16T01:55:27.528Z,25.79
2023-04-16T01:56:27.540Z,25.83
2023-04-16T01:57:27.593Z,25.80
2023-04-16T01:58:27.594Z,25.80
2023-04-16T01:59:27.614Z,25.83
2023-04-16T02:00:27.646Z,25.81
2023-04-16T02:01:27.767Z,25.81
2023-04-16T02:02:27.848Z,25.83
2023-04-16T02:03:27.796Z,25.80
2023-04-16T02:04:27.723Z,25.80
2023-04-16T02:05:27.753Z,25.81
2023-04-16T02:06:27.772Z,25.79
2023-04-16T02:07:27.792Z,25.81
2023-04-16T02:08:27.809Z,25.81
2023-04-16T02:09:27.857Z,25.81
2023-04-16T02:10:27.860Z,25.80
2023-04-16T02:11:27.879Z,25.79
2023-04-16T02:12:27.982Z,25.80
2023-04-16T02:13:27.935Z,25.81
2023-04-16T02:14:27.963Z,25.81
2023-04-16T02:15:28.005Z,25.81
2023-04-16T02:16:28.026Z,25.79
2023-04-16T02:17:28.128Z,25.80
2023-04-16T02:18:28.082Z,25.79
2023-04-16T02:19:28.087Z,25.80
2023-04-16T02:20:28.120Z,25.80
2023-04-16T02:21:28.152Z,25.81
2023-04-16T02:22:28.170Z,25.77
2023-04-16T02:23:28.212Z,25.80
2023-04-16T02:24:28.240Z,25.81
2023-04-16T02:25:28.269Z,25.80
2023-04-16T02:26:28.309Z,25.79
2023-04-16T02:27:28.322Z,25.81
2023-04-16T02:28:28.346Z,25.81
2023-04-16T02:29:28.357Z,25.80
2023-04-16T02:30:28.379Z,25.80
2023-04-16T02:31:28.443Z,25.81
2023-04-16T02:32:28.449Z,25.79
2023-04-16T02:33:28.473Z,25.80
2023-04-16T02:34:28.494Z,25.79
2023-04-16T02:35:28.514Z,25.80
2023-04-16T02:36:28.518Z,25.80
2023-04-16T02:37:28.533Z,25.77
2023-04-16T02:38:28.575Z,25.80
2023-04-16T02:39:28.589Z,25.83
2023-04-16T02:40:28.614Z,25.81
2023-04-16T02:41:28.652Z,25.79
2023-04-16T02:42:28.656Z,25.80
2023-04-16T02:43:28.714Z,25.77
2023-04-16T02:44:28.722Z,25.80
2023-04-16T02:45:28.751Z,25.80
2023-04-16T02:46:28.931Z,25.79
2023-04-16T02:47:28.886Z,25.80
2023-04-16T02:48:28.828Z,25.80
2023-04-16T02:49:28.850Z,25.79
2023-04-16T02:50:28.866Z,25.77
2023-04-16T02:51:28.909Z,25.81
2023-04-16T02:52:28.931Z,25.80
2023-04-16T02:53:28.973Z,25.80
2023-04-16T02:54:28.975Z,25.80
2023-04-16T02:55:29.007Z,25.80
2023-04-16T02:56:29.026Z,25.80
2023-04-16T02:57:29.056Z,25.80
2023-04-16T02:58:29.082Z,25.80
2023-04-16T02:59:29.157Z,25.79
2023-04-16T03:00:29.142Z,25.80
2023-04-16T03:01:29.261Z,25.79
2023-04-16T03:02:29.293Z,25.81
2023-04-16T03:03:29.229Z,25.77
2023-04-16T03:04:29.289Z,25.79
2023-04-16T03:05:29.293Z,25.79
2023-04-16T03:06:29.304Z,25.79
2023-04-16T03:07:29.309Z,25.81
2023-04-16T03:08:29.346Z,25.77
2023-04-16T03:09:29.357Z,25.79
2023-04-16T03:10:29.398Z,25.80
2023-04-16T03:11:29.436Z,25.79
2023-04-16T03:12:29.452Z,25.79
2023-04-16T03:13:29.486Z,25.79
2023-04-16T03:14:29.501Z,25.80
2023-04-16T03:15:29.586Z,25.79
2023-04-16T03:16:29.552Z,25.79
2023-04-16T03:17:29.613Z,25.77
2023-04-16T03:18:29.591Z,25.77
2023-04-16T03:19:29.607Z,25.79
2023-04-16T03:20:29.644Z,25.80
2023-04-16T03:21:29.673Z,25.77
2023-04-16T03:22:29.705Z,25.79
2023-04-16T03:23:29.730Z,25.79
2023-04-16T03:24:29.792Z,25.77
2023-04-16T03:25:29.785Z,25.77
2023-04-16T03:26:29.791Z,25.77
2023-04-16T03:27:29.818Z,25.77
2023-04-16T03:28:29.857Z,25.79
2023-04-16T03:29:29.865Z,25.79
2023-04-16T03:30:29.889Z,25.77
2023-04-16T03:31:29.951Z,25.80
2023-04-16T03:32:29.954Z,25.79
2023-04-16T03:33:29.990Z,25.77
2023-04-16T03:34:30.021Z,25.79
2023-04-16T03:35:30.042Z,25.79
2023-04-16T03:36:30.046Z,25.76
2023-04-16T03:37:30.083Z,25.77
2023-04-16T03:38:30.100Z,25.79
2023-04-16T03:39:30.145Z,25.77
2023-04-16T03:40:30.151Z,25.77
2023-04-16T03:41:30.168Z,25.76
2023-04-16T03:42:30.213Z,25.80
2023-04-16T03:43:30.219Z,25.79
2023-04-16T03:44:30.236Z,25.76
2023-04-16T03:45:30.265Z,25.74
2023-04-16T03:46:30.328Z,25.77
2023-04-16T03:47:30.351Z,25.77
2023-04-16T03:48:30.379Z,25.79
2023-04-16T03:49:30.394Z,25.77
2023-04-16T03:50:30.413Z,25.77
2023-04-16T03:51:30.430Z,25.77
2023-04-16T03:52:30.461Z,25.77
2023-04-16T03:53:30.517Z,25.77
2023-04-16T03:54:30.529Z,25.74
2023-04-16T03:55:30.591Z,25.77
2023-04-16T03:56:30.611Z,25.77
2023-04-16T03:57:30.626Z,25.76
2023-04-16T03:58:30.644Z,25.77
2023-04-16T03:59:30.675Z,25.77
2023-04-16T04:00:30.719Z,25.76
2023-04-16T04:01:30.761Z,25.77
2023-04-16T04:02:30.871Z,25.76
2023-04-16T04:03:31.113Z,25.79
2023-04-16T04:04:30.963Z,25.79
2023-04-16T04:05:30.815Z,25.79
2023-04-16T04:06:30.862Z,25.79
2023-04-16T04:07:30.874Z,25.77
2023-04-16T04:08:30.912Z,25.76
2023-04-16T04:09:30.945Z,25.77
2023-04-16T04:10:30.946Z,25.79
2023-04-16T04:11:30.987Z,25.79
2023-04-16T04:12:30.983Z,25.79
2023-04-16T04:13:31.062Z,25.76
2023-04-16T04:14:31.043Z,25.76
2023-04-16T04:15:31.066Z,25.80
2023-04-16T04:16:31.127Z,25.77
2023-04-16T04:17:31.175Z,25.74
2023-04-16T04:18:31.134Z,25.79
2023-04-16T04:19:31.170Z,25.76
2023-04-16T04:20:31.196Z,25.77
2023-04-16T04:21:31.224Z,25.76
2023-04-16T04:22:31.253Z,25.77
2023-04-16T04:23:31.278Z,25.77
2023-04-16T04:24:31.280Z,25.77
2023-04-16T04:25:31.323Z,25.77
2023-04-16T04:26:31.411Z,25.77
2023-04-16T04:27:31.357Z,25.77
2023-04-16T04:28:31.392Z,25.77
2023-04-16T04:29:31.394Z,25.79
2023-04-16T04:30:31.436Z,25.77
2023-04-16T04:31:31.516Z,25.79
2023-04-16T04:32:31.495Z,25.77
2023-04-16T04:33:31.504Z,25.77
2023-04-16T04:34:31.523Z,25.77
2023-04-16T04:35:31.556Z,25.77
2023-04-16T04:36:31.604Z,25.77
2023-04-16T04:37:31.608Z,25.77
2023-04-16T04:38:31.636Z,25.74
2023-04-16T04:39:31.664Z,25.74
2023-04-16T04:40:31.697Z,25.77
2023-04-16T04:41:31.715Z,25.77
2023-04-16T04:42:31.747Z,25.76
2023-04-16T04:43:31.788Z,25.76
2023-04-16T04:44:31.803Z,25.76
2023-04-16T04:45:32.182Z,25.74
2023-04-16T04:46:31.860Z,25.77
2023-04-16T04:47:31.925Z,25.79
2023-04-16T04:48:31.936Z,25.74
2023-04-16T04:49:31.951Z,25.74
2023-04-16T04:50:31.975Z,25.76
2023-04-16T04:51:32.021Z,25.76
2023-04-16T04:52:32.064Z,25.79
2023-04-16T04:53:32.077Z,25.76
2023-04-16T04:54:32.108Z,25.77
2023-04-16T04:55:32.127Z,25.76
2023-04-16T04:56:32.167Z,25.74
2023-04-16T04:57:32.206Z,25.77
2023-04-16T04:58:32.200Z,25.77
2023-04-16T04:59:32.244Z,25.76
2023-04-16T05:00:32.274Z,25.77
2023-04-16T05:01:32.322Z,25.77
2023-04-16T05:02:32.372Z,25.74
2023-04-16T05:03:32.422Z,25.76
2023-04-16T05:04:32.371Z,25.74
2023-04-16T05:05:32.409Z,25.77
2023-04-16T05:06:32.432Z,25.76
2023-04-16T05:07:32.487Z,25.79
2023-04-16T05:08:32.492Z,25.77
2023-04-16T05:09:32.522Z,25.77
2023-04-16T05:10:32.582Z,25.77
2023-04-16T05:11:32.571Z,25.76
2023-04-16T05:12:32.611Z,25.77
2023-04-16T05:13:32.621Z,25.77
2023-04-16T05:14:32.688Z,25.77
2023-04-16T05:15:32.694Z,25.76
2023-04-16T05:16:32.736Z,25.76
2023-04-16T05:17:32.781Z,25.76
2023-04-16T05:18:32.797Z,25.77
2023-04-16T05:19:32.794Z,25.76
2023-04-16T05:20:32.820Z,25.77
2023-04-16T05:21:32.845Z,25.77
2023-04-16T05:22:32.887Z,25.77
2023-04-16T05:23:32.906Z,25.76
2023-04-16T05:24:32.928Z,25.77
2023-04-16T05:25:32.957Z,25.76
2023-04-16T05:26:32.988Z,25.76
2023-04-16T05:27:33.008Z,25.76
2023-04-16T05:28:33.048Z,25.76
2023-04-16T05:29:33.096Z,25.77
2023-04-16T05:30:33.102Z,25.76
2023-04-16T05:31:33.100Z,25.79
2023-04-16T05:32:33.141Z,25.76
2023-04-16T05:33:33.141Z,25.77
2023-04-16T05:34:33.151Z,25.80
2023-04-16T05:35:33.175Z,25.79
2023-04-16T05:36:33.187Z,25.79
2023-04-16T05:37:33.220Z,25.76
2023-04-16T05:38:33.255Z,25.80
2023-04-16T05:39:33.301Z,25.79
2023-04-16T05:40:33.314Z,25.76
2023-04-16T05:41:33.336Z,25.74
2023-04-16T05:42:33.332Z,25.79
2023-04-16T05:43:33.368Z,25.76
2023-04-16T05:44:33.373Z,25.79
2023-04-16T05:45:33.400Z,25.77
2023-04-16T05:46:33.527Z,25.80
2023-04-16T05:47:33.479Z,25.81
2023-04-16T05:48:33.479Z,25.77
2023-04-16T05:49:33.519Z,25.79
2023-04-16T05:50:33.506Z,25.76
2023-04-16T05:51:33.561Z,25.77
2023-04-16T05:52:33.566Z,25.80
2023-04-16T05:53:33.626Z,25.80
2023-04-16T05:54:33.628Z,25.79
2023-04-16T05:55:33.654Z,25.79
2023-04-16T05:56:33.677Z,25.80
2023-04-16T05:57:33.715Z,25.79
2023-04-16T05:58:33.732Z,25.77
2023-04-16T05:59:33.772Z,25.79
2023-04-16T06:00:33.813Z,25.79
2023-04-16T06:01:34.475Z,25.76
2023-04-16T06:02:34.067Z,25.77
2023-04-16T06:03:34.002Z,25.77
2023-04-16T06:04:33.918Z,25.77
2023-04-16T06:05:33.966Z,25.77
2023-04-16T06:06:33.957Z,25.79
2023-04-16T06:07:34.006Z,25.79
2023-04-16T06:08:34.035Z,25.77
2023-04-16T06:09:34.076Z,25.80
2023-04-16T06:10:34.079Z,25.77
2023-04-16T06:11:35.881Z,25.77
2023-04-16T06:12:34.121Z,25.80
2023-04-16T06:13:34.133Z,25.80
2023-04-16T06:14:34.171Z,25.79
2023-04-16T06:15:34.182Z,25.79
2023-04-16T06:16:34.324Z,25.79
2023-04-16T06:17:34.303Z,25.79
2023-04-16T06:18:34.256Z,25.80
2023-04-16T06:19:34.287Z,25.79
2023-04-16T06:20:34.300Z,25.80
2023-04-16T06:21:34.339Z,25.79
2023-04-16T06:22:34.399Z,25.79
2023-04-16T06:23:34.398Z,25.79
2023-04-16T06:24:34.416Z,25.77
2023-04-16T06:25:34.466Z,25.80
2023-04-16T06:26:34.453Z,25.80
2023-04-16T06:27:34.481Z,25.80
2023-04-16T06:28:34.512Z,25.77
2023-04-16T06:29:41.165Z,25.79
2023-04-16T06:30:35.522Z,25.81
2023-04-16T06:31:34.535Z,25.79
2023-04-16T06:32:34.589Z,25.80
2023-04-16T06:33:34.486Z,25.80
2023-04-16T06:34:34.507Z,25.80
2023-04-16T06:35:34.474Z,25.79
2023-04-16T06:36:34.461Z,25.79
2023-04-16T06:37:34.457Z,25.80
2023-04-16T06:38:34.478Z,25.81
2023-04-16T06:39:34.466Z,25.80
2023-04-16T06:40:34.440Z,25.83
2023-04-16T06:41:34.434Z,25.83
2023-04-16T06:42:34.437Z,25.80
2023-04-16T06:43:34.429Z,25.80
2023-04-16T06:44:34.411Z,25.80
2023-04-16T06:45:34.430Z,25.80
2023-04-16T06:46:34.474Z,25.81
2023-04-16T06:47:34.590Z,25.81
2023-04-16T06:48:34.506Z,25.79
2023-04-16T06:49:34.514Z,25.83
2023-04-16T06:50:34.537Z,25.83
2023-04-16T06:51:34.554Z,25.83
2023-04-16T06:52:34.573Z,25.81
2023-04-16T06:53:34.612Z,25.84
2023-04-16T06:54:34.630Z,25.83
2023-04-16T06:55:34.636Z,25.84
2023-04-16T06:56:34.670Z,25.84
2023-04-16T06:57:36.265Z,25.84
2023-04-16T06:58:34.690Z,25.84
2023-04-16T06:59:34.678Z,25.85
2023-04-16T07:00:34.697Z,25.85
2023-04-16T07:01:34.745Z,25.85
2023-04-16T07:02:34.855Z,25.85
2023-04-16T07:03:34.752Z,25.85
2023-04-16T07:04:34.634Z,25.87
2023-04-16T07:05:34.652Z,25.87
2023-04-16T07:06:34.632Z,25.87
2023-04-16T07:07:34.609Z,25.87
2023-04-16T07:08:34.605Z,25.88
2023-04-16T07:09:34.608Z,25.90
2023-04-16T07:10:34.586Z,25.88
2023-04-16T07:11:34.612Z,25.88
2023-04-16T07:12:34.582Z,25.91
2023-04-16T07:13:34.570Z,25.91
2023-04-16T07:14:34.558Z,25.90
2023-04-16T07:15:34.564Z,25.93
2023-04-16T07:16:34.617Z,25.91
2023-04-16T07:17:34.540Z,25.91
2023-04-16T07:18:34.549Z,25.94
2023-04-16T07:19:34.546Z,25.91
2023-04-16T07:20:34.538Z,25.93
2023-04-16T07:21:34.536Z,25.94
2023-04-16T07:22:34.521Z,25.94
2023-04-16T07:23:34.506Z,25.94
2023-04-16T07:24:34.517Z,25.93
2023-04-16T07:25:34.486Z,25.94
2023-04-16T07:26:34.473Z,25.95
2023-04-16T07:27:34.478Z,25.97
2023-04-16T07:28:34.463Z,25.97
2023-04-16T07:29:34.453Z,25.97
2023-04-16T07:30:34.467Z,25.97
2023-04-16T07:31:34.476Z,25.97
2023-04-16T07:32:34.472Z,25.98
2023-04-16T07:33:34.437Z,25.97
2023-04-16T07:34:34.423Z,25.98
2023-04-16T07:35:34.412Z,26.01
2023-04-16T07:36:34.426Z,26.00
2023-04-16T07:37:34.397Z,26.01
2023-04-16T07:38:34.402Z,26.03
2023-04-16T07:39:34.398Z,26.03
2023-04-16T07:40:34.394Z,26.03
2023-04-16T07:41:34.383Z,26.05
2023-04-16T07:42:34.382Z,26.04
2023-04-16T07:43:34.373Z,26.03
2023-04-16T07:44:34.377Z,26.05
2023-04-16T07:45:34.388Z,26.04
2023-04-16T07:46:43.548Z,26.05
2023-04-16T07:47:35.357Z,26.05
2023-04-16T07:48:34.352Z,26.07
2023-04-16T07:49:34.338Z,26.07
2023-04-16T07:50:34.307Z,26.07
2023-04-16T07:51:34.299Z,26.05
2023-04-16T07:52:34.303Z,26.07
2023-04-16T07:53:34.312Z,26.05
2023-04-16T07:54:34.300Z,26.07
2023-04-16T07:55:34.309Z,26.07
2023-04-16T07:56:34.296Z,26.09
2023-04-16T07:57:34.297Z,26.09
2023-04-16T07:58:34.272Z,26.08
2023-04-16T07:59:34.286Z,26.09
2023-04-16T08:00:34.268Z,26.08
2023-04-16T08:01:34.250Z,26.13
2023-04-16T08:02:34.330Z,26.11
2023-04-16T08:03:34.330Z,26.11
2023-04-16T08:04:34.368Z,26.09
2023-04-16T08:05:34.217Z,26.11
2023-04-16T08:06:34.200Z,26.13
2023-04-16T08:07:34.903Z,26.13
2023-04-16T08:08:34.194Z,26.13
2023-04-16T08:09:34.239Z,26.11
2023-04-16T08:10:34.249Z,26.14
2023-04-16T08:11:34.269Z,26.13
2023-04-16T08:12:34.276Z,26.14
2023-04-16T08:13:34.286Z,26.13
2023-04-16T08:14:34.310Z,26.13
2023-04-16T08:15:34.364Z,26.17
2023-04-16T08:16:34.327Z,26.15
2023-04-16T08:17:34.401Z,26.15
2023-04-16T08:18:34.376Z,26.14
2023-04-16T08:19:34.380Z,26.15
2023-04-16T08:20:34.418Z,26.14
2023-04-16T08:21:34.413Z,26.14
2023-04-16T08:22:34.443Z,26.17
2023-04-16T08:23:34.447Z,26.18
2023-04-16T08:24:34.479Z,26.15
2023-04-16T08:25:34.486Z,26.17
2023-04-16T08:26:34.496Z,26.17
2023-04-16T08:27:34.527Z,26.18
2023-04-16T08:28:34.540Z,26.18
2023-04-16T08:29:34.559Z,26.18
2023-04-16T08:30:34.552Z,26.15
2023-04-16T08:31:34.628Z,26.18
2023-04-16T08:32:34.603Z,26.20
2023-04-16T08:33:34.607Z,26.20
2023-04-16T08:34:34.619Z,26.21
2023-04-16T08:35:34.613Z,26.20
2023-04-16T08:36:34.646Z,26.20
2023-04-16T08:37:34.651Z,26.20
2023-04-16T08:38:34.661Z,26.20
2023-04-16T08:39:34.653Z,26.20
2023-04-16T08:40:34.679Z,26.23
2023-04-16T08:41:34.674Z,26.23
2023-04-16T08:42:34.686Z,26.24
2023-04-16T08:43:34.688Z,26.24
2023-04-16T08:44:34.716Z,26.23
2023-04-16T08:45:34.713Z,26.24
2023-04-16T08:46:34.766Z,26.25
2023-04-16T08:47:34.735Z,26.27
2023-04-16T08:48:34.734Z,26.27
2023-04-16T08:49:34.720Z,26.25
2023-04-16T08:50:34.753Z,26.30
2023-04-16T08:51:34.761Z,26.28
2023-04-16T08:52:34.748Z,26.27
2023-04-16T08:53:34.747Z,26.28
2023-04-16T08:54:34.741Z,26.28
2023-04-16T08:55:34.764Z,26.28
2023-04-16T08:56:34.769Z,26.30
2023-04-16T08:57:34.782Z,26.27
2023-04-16T08:58:34.774Z,26.30
2023-04-16T08:59:34.794Z,26.28
2023-04-16T09:00:34.788Z,26.30
2023-04-16T09:01:34.860Z,26.30
2023-04-16T09:02:35.065Z,26.28
2023-04-16T09:03:36.460Z,26.28
2023-04-16T09:04:34.879Z,26.31
2023-04-16T09:05:34.837Z,26.27
2023-04-16T09:06:34.844Z,26.31
2023-04-16T09:07:34.831Z,26.28
2023-04-16T09:08:34.854Z,26.30
2023-04-16T09:09:34.856Z,26.28
2023-04-16T09:10:34.872Z,26.27
2023-04-16T09:11:34.851Z,26.25
2023-04-16T09:12:34.856Z,26.28
2023-04-16T09:13:34.878Z,26.28
2023-04-16T09:14:34.876Z,26.28
2023-04-16T09:15:35.276Z,26.30
2023-04-16T09:16:34.910Z,26.28
2023-04-16T09:17:34.967Z,26.27
2023-04-16T09:18:34.938Z,26.28
2023-04-16T09:19:34.915Z,26.28
2023-04-16T09:20:34.930Z,26.28
2023-04-16T09:21:34.930Z,26.27
2023-04-16T09:22:34.947Z,26.27
2023-04-16T09:23:34.927Z,26.30
2023-04-16T09:24:34.956Z,26.30
2023-04-16T09:25:34.966Z,26.30
2023-04-16T09:26:34.979Z,26.30
2023-04-16T09:27:34.989Z,26.28
2023-04-16T09:28:35.004Z,26.30
2023-04-16T09:29:34.975Z,26.28
2023-04-16T09:30:35.001Z,26.31
2023-04-16T09:31:35.086Z,26.32
2023-04-16T09:32:35.023Z,26.31
2023-04-16T09:33:35.123Z,26.31
2023-04-16T09:34:35.022Z,26.30
2023-04-16T09:35:34.997Z,26.32
2023-04-16T09:36:35.018Z,26.31
2023-04-16T09:37:35.006Z,26.30
2023-04-16T09:38:35.019Z,26.30
2023-04-16T09:39:35.009Z,26.31
2023-04-16T09:40:35.065Z,26.31
2023-04-16T09:41:35.022Z,26.31
2023-04-16T09:42:35.003Z,26.34
2023-04-16T09:43:35.026Z,26.32
2023-04-16T09:44:35.007Z,26.32
2023-04-16T09:45:35.035Z,26.30
2023-04-16T09:46:35.096Z,26.34
2023-04-16T09:47:35.074Z,26.35
2023-04-16T09:48:35.024Z,26.32
2023-04-16T09:49:35.013Z,26.35
2023-04-16T09:50:35.069Z,26.35
2023-04-16T09:51:35.035Z,26.35
2023-04-16T09:52:35.043Z,26.35
2023-04-16T09:53:35.034Z,26.38
2023-04-16T09:54:35.013Z,26.38
2023-04-16T09:55:35.040Z,26.38
2023-04-16T09:56:35.065Z,26.37
2023-04-16T09:57:35.020Z,26.41
2023-04-16T09:58:35.032Z,26.41
2023-04-16T09:59:35.021Z,26.41
2023-04-16T10:00:35.069Z,26.38
2023-04-16T10:01:36.087Z,26.42
2023-04-16T10:02:35.050Z,26.42
2023-04-16T10:03:35.336Z,26.42
2023-04-16T10:04:35.041Z,26.42
2023-04-16T10:05:34.999Z,26.44
2023-04-16T10:06:34.971Z,26.44
2023-04-16T10:07:34.963Z,26.44
2023-04-16T10:08:34.990Z,26.45
2023-04-16T10:09:34.965Z,26.46
2023-04-16T10:10:34.966Z,26.48
2023-04-16T10:11:34.964Z,26.48
2023-04-16T10:12:34.940Z,26.46
2023-04-16T10:13:34.937Z,26.49
2023-04-16T10:14:34.929Z,26.49
2023-04-16T10:15:34.908Z,26.48
2023-04-16T10:16:34.939Z,26.48
2023-04-16T10:17:34.995Z,26.49
2023-04-16T10:18:34.896Z,26.51
2023-04-16T10:19:34.900Z,26.51
2023-04-16T10:20:34.886Z,26.54
2023-04-16T10:21:34.866Z,26.51
2023-04-16T10:22:34.875Z,26.54
2023-04-16T10:23:34.889Z,26.55
2023-04-16T10:24:34.900Z,26.55
2023-04-16T10:25:34.915Z,26.56
2023-04-16T10:26:34.967Z,26.56
2023-04-16T10:27:34.997Z,26.56
2023-04-16T10:28:35.061Z,26.58
2023-04-16T10:29:35.085Z,26.58
2023-04-16T10:30:35.132Z,26.56
2023-04-16T10:31:35.129Z,26.58
2023-04-16T10:32:35.157Z,26.60
2023-04-16T10:33:35.158Z,26.58
2023-04-16T10:34:35.171Z,26.59
2023-04-16T10:35:35.207Z,26.58
2023-04-16T10:36:35.222Z,26.60
2023-04-16T10:37:35.251Z,26.60
2023-04-16T10:38:35.294Z,26.62
2023-04-16T10:39:35.283Z,26.60
2023-04-16T10:40:35.309Z,26.60
2023-04-16T10:41:35.358Z,26.60
2023-04-16T10:42:35.374Z,26.62
2023-04-16T10:43:35.407Z,26.59
2023-04-16T10:44:35.440Z,26.58
2023-04-16T10:45:35.460Z,26.62
2023-04-16T10:46:35.586Z,26.62
2023-04-16T10:47:35.523Z,26.60
2023-04-16T10:48:46.518Z,26.62
2023-04-16T10:49:36.543Z,26.60
2023-04-16T10:50:35.524Z,26.62
2023-04-16T10:51:35.520Z,26.59
2023-04-16T10:52:35.515Z,26.60
2023-04-16T10:53:35.509Z,26.62
2023-04-16T10:54:35.510Z,26.62
2023-04-16T10:55:35.481Z,26.62
2023-04-16T10:56:35.499Z,26.62
2023-04-16T10:57:35.488Z,26.65
2023-04-16T10:58:35.521Z,26.63
2023-04-16T10:59:35.533Z,26.62
2023-04-16T11:00:35.564Z,26.62
2023-04-16T11:01:35.630Z,26.65
2023-04-16T11:02:35.970Z,26.65
2023-04-16T11:03:35.814Z,26.63
2023-04-16T11:04:35.832Z,26.66
2023-04-16T11:05:35.760Z,26.66
2023-04-16T11:06:35.811Z,26.65
2023-04-16T11:07:35.852Z,26.68
2023-04-16T11:08:44.264Z,26.66
2023-04-16T11:09:36.880Z,26.66
2023-04-16T11:10:35.858Z,26.66
2023-04-16T11:11:35.869Z,26.65
2023-04-16T11:12:35.870Z,26.65
2023-04-16T11:13:35.839Z,26.66
2023-04-16T11:14:35.838Z,26.66
2023-04-16T11:15:35.852Z,26.66
2023-04-16T11:16:35.817Z,26.65
2023-04-16T11:17:35.862Z,26.68
2023-04-16T11:18:35.824Z,26.68
2023-04-16T11:19:36.809Z,26.66
2023-04-16T11:20:35.806Z,26.65
2023-04-16T11:21:35.809Z,26.66
2023-04-16T11:22:35.831Z,26.65
2023-04-16T11:23:35.788Z,26.66
2023-04-16T11:24:35.779Z,26.68
2023-04-16T11:25:35.776Z,26.65
2023-04-16T11:26:35.774Z,26.66
2023-04-16T11:27:35.788Z,26.66
2023-04-16T11:28:35.801Z,26.66
2023-04-16T11:29:35.840Z,26.68
2023-04-16T11:30:35.890Z,26.68
2023-04-16T11:31:36.014Z,26.68
2023-04-16T11:32:36.084Z,26.68
2023-04-16T11:33:36.063Z,26.68
2023-04-16T11:34:36.123Z,26.66
2023-04-16T11:35:36.203Z,26.65
2023-04-16T11:36:36.243Z,26.66
2023-04-16T11:37:36.358Z,26.65
2023-04-16T11:38:36.374Z,26.65
2023-04-16T11:39:36.434Z,26.63
2023-04-16T11:40:36.517Z,26.63
2023-04-16T11:41:36.534Z,26.65
2023-04-16T11:42:36.643Z,26.65
2023-04-16T11:43:36.686Z,26.65
2023-04-16T11:44:36.725Z,26.65
2023-04-16T11:45:36.795Z,26.65
2023-04-16T11:46:36.869Z,26.63
2023-04-16T11:47:36.973Z,26.62
2023-04-16T11:48:36.925Z,26.62
2023-04-16T11:49:36.948Z,26.60
2023-04-16T11:50:36.996Z,26.62
2023-04-16T11:51:37.050Z,26.63
2023-04-16T11:52:37.139Z,26.63
2023-04-16T11:53:37.170Z,26.63
2023-04-16T11:54:37.192Z,26.65
2023-04-16T11:55:37.233Z,26.63
2023-04-16T11:56:37.257Z,26.63
2023-04-16T11:57:37.304Z,26.59
2023-04-16T11:58:37.336Z,26.59
2023-04-16T11:59:38.282Z,26.60
2023-04-16T12:00:38.280Z,26.60
2023-04-16T12:01:37.262Z,26.60
2023-04-16T12:02:37.519Z,26.60
2023-04-16T12:03:37.528Z,26.59
2023-04-16T12:04:37.362Z,26.60
2023-04-16T12:05:37.246Z,26.59
2023-04-16T12:06:37.265Z,26.56
2023-04-16T12:07:37.262Z,26.58
2023-04-16T12:08:37.269Z,26.56
2023-04-16T12:09:40.244Z,26.56
2023-04-16T12:10:37.228Z,26.58
2023-04-16T12:11:37.200Z,26.56
2023-04-16T12:12:37.208Z,26.59
2023-04-16T12:13:37.199Z,26.58
2023-04-16T12:14:37.179Z,26.56
2023-04-16T12:15:37.196Z,26.56
2023-04-16T12:16:37.168Z,26.54
2023-04-16T12:17:37.204Z,26.55
2023-04-16T12:18:37.181Z,26.55
2023-04-16T12:19:37.144Z,26.52
2023-04-16T12:20:37.140Z,26.54
2023-04-16T12:21:37.139Z,26.54
2023-04-16T12:22:37.524Z,26.52
2023-04-16T12:23:37.171Z,26.51
2023-04-16T12:24:37.114Z,26.51
2023-04-16T12:25:37.093Z,26.52
2023-04-16T12:26:37.110Z,26.55
2023-04-16T12:27:37.090Z,26.49
2023-04-16T12:28:37.111Z,26.51
2023-04-16T12:29:37.082Z,26.51
2023-04-16T12:30:37.105Z,26.49
2023-04-16T12:31:37.072Z,26.52
2023-04-16T12:32:37.086Z,26.48
2023-04-16T12:33:37.072Z,26.46
2023-04-16T12:34:48.014Z,26.51
2023-04-16T12:35:38.037Z,26.48
2023-04-16T12:36:37.028Z,26.48
2023-04-16T12:37:37.019Z,26.48
2023-04-16T12:38:37.028Z,26.49
2023-04-16T12:39:37.009Z,26.48
2023-04-16T12:40:36.990Z,26.46
2023-04-16T12:41:36.996Z,26.46
2023-04-16T12:42:37.009Z,26.45
2023-04-16T12:43:37.007Z,26.48
2023-04-16T12:44:36.989Z,26.48
2023-04-16T12:45:36.973Z,26.46
2023-04-16T12:46:36.992Z,26.48
2023-04-16T12:47:36.983Z,26.46
2023-04-16T12:48:36.959Z,26.48
2023-04-16T12:49:36.949Z,26.48
2023-04-16T12:50:36.937Z,26.46
2023-04-16T12:51:36.935Z,26.45
2023-04-16T12:52:36.937Z,26.45